• Join FlightAware (Why Join?)
  • Login
  • US Flag 
06:11AM EDT


 

Airport Tracker/Info


-or-


 

Live Flight TrackerFlight Track Log ✈ EJA102 ✈ 10-Aug-2013 ✈ KTTN - KIAD

Flight Track Log - Related Links

Times and Time Zones

All times are in EDT time to prevent confusion due to time zone crossing. See the EJA102 flight status page for this flight to view local times or setup timezone preferences in your user account.

Time Position Orientation Groundspeed Altitude Reporting Facility
EDT Latitude Longitude Course Direction KTS MPH feet Rate Location/Type
07:27AM 40.2667 -74.8333 217° Southwest 123 142 1,000  Level Philadelphia TRACON
07:28AM 40.2000 -74.9000 217° Southwest 213 245 4,300 2,160 Climbing Philadelphia TRACON
07:29AM 40.1667 -74.9500 229° Southwest 230 265 6,500 1,320 Climbing Philadelphia TRACON
07:30AM 40.1167 -75.0167 226° Southwest 261 300 6,900 540 Climbing Philadelphia TRACON
07:32AM 40.0556 -75.1939 246° West 250 288 8,300 900 Climbing New York Center
07:33AM 40.0317 -75.2792 250° West 250 288 9,700 840 Climbing New York Center
07:34AM 40.0072 -75.3672 250° West 256 295 10,000 120 Climbing New York Center
07:35AM 39.9808 -75.4547 249° West 266 306 10,000 300 Level New York Center
07:36AM 39.9542 -75.5478 250° West 266 306 10,700 1,140 Climbing New York Center
07:37AM 39.9275 -75.6406 249° West 271 312 12,300 1,560 Climbing New York Center
07:38AM 39.9214 -75.7350 265° West 284 327 13,900 840 Climbing New York Center
07:39AM 39.9267 -75.8572 273° West 312 359 14,000  Climbing New York Center
07:40AM 39.9344 -75.9661 275° West 333 383 14,000  Level New York Center
07:41AM 39.9400 -76.0750 274° West 317 365 14,000  Level New York Center
07:42AM 39.9472 -76.1892 275° West 302 348 14,000  Level New York Center
07:43AM 39.9506 -76.2978 272° West 302 348 14,000  Level New York Center
07:44AM 39.9558 -76.4067 274° West 302 348 14,000  Level New York Center
07:45AM 39.9594 -76.5044 273° West 302 348 14,000  Level New York Center
07:48AM 39.9000 -76.7500 253° West 307 353 14,000 -120 Level Potomac TRACON
07:49AM 39.8500 -76.8500 237° Southwest 322 371 13,600 -1,260 Descending Potomac TRACON
07:50AM 39.8167 -76.9500 247° West 320 368 11,500 -1,860 Descending Potomac TRACON
07:51AM 39.7833 -77.0333 243° Southwest 319 367 10,100 -840 Descending Potomac TRACON
07:52AM 39.7333 -77.1167 232° Southwest 292 336 10,000 -60 Descending Potomac TRACON
07:53AM 39.7000 -77.2000 243° Southwest 272 313 10,000 -120 Level Potomac TRACON
07:54AM 39.6500 -77.2833 232° Southwest 269 310 9,800 -1,500 Descending Potomac TRACON
07:55AM 39.6000 -77.3500 226° Southwest 265 305 7,100 -1,440 Descending Potomac TRACON
07:56AM 39.5167 -77.3500 180° South 283 326 7,000 -60 Descending Potomac TRACON
07:57AM 39.4333 -77.3667 189° South 277 319 7,000 -180 Level Potomac TRACON
07:58AM 39.3833 -77.3667 180° South 280 322 6,700 -840 Descending Potomac TRACON
07:59AM 39.3000 -77.3667 180° South 283 326 5,500 -1,080 Descending Potomac TRACON
08:00AM 39.2167 -77.3667 180° South 280 322 4,600 -840 Descending Potomac TRACON
08:00AM 39.1500 -77.3667 180° South 283 326 4,000 -360 Descending Potomac TRACON
08:01AM 39.0833 -77.3667 180° South 276 318 4,000 -300 Level Potomac TRACON
08:02AM 39.0000 -77.3667 180° South 274 315 3,500 -540 Descending Potomac TRACON
08:03AM 38.9333 -77.3667 180° South 265 305 3,000 -300 Descending Potomac TRACON
08:04AM 38.8833 -77.3667 180° South 255 293 3,000 -600 Level Potomac TRACON
08:05AM 38.8500 -77.4167 229° Southwest 184 212 1,900 -1,020 Descending Potomac TRACON
08:06AM 38.8833 -77.4333 339° North 156 180 1,100 -1,020 Descending Potomac TRACON
08:08AM 38.9333 -77.4500 349° North  Level FlightAware Approximate
08:15AM 38.9474 -77.4599 349° North  Level Estimated